createdAt,value
2023-01-27T00:02:04.545Z,30.6
2023-01-27T00:06:56.797Z,28
2023-01-27T00:11:48.100Z,27.2
2023-01-27T00:16:40.105Z,29.1
2023-01-27T00:21:31.618Z,30.6
2023-01-27T00:26:23.517Z,27.8
2023-01-27T00:31:31.344Z,27.1
2023-01-27T00:36:38.419Z,29.4
2023-01-27T00:41:30.114Z,29.4
2023-01-27T00:46:21.540Z,27.6
2023-01-27T00:51:27.216Z,26.8
2023-01-27T00:56:18.271Z,29.8
2023-01-27T01:01:25.224Z,26.1
2023-01-27T01:06:32.009Z,24.5
2023-01-27T01:11:39.323Z,29.4
2023-01-27T01:16:46.903Z,29.6
2023-01-27T01:21:53.342Z,27.4
2023-01-27T01:26:59.978Z,28.1
2023-01-27T01:32:23.731Z,30.8
2023-01-27T01:37:45.594Z,27.9
2023-01-27T01:43:11.214Z,26.9
2023-01-27T01:48:34.084Z,30.1
2023-01-27T01:53:55.653Z,28.6
2023-01-27T01:59:19.966Z,27.3
2023-01-27T02:04:43.415Z,29.4
2023-01-27T02:10:04.994Z,29.4
2023-01-27T02:15:28.194Z,27.4
2023-01-27T02:20:35.482Z,28.5
2023-01-27T02:25:58.203Z,30.8
2023-01-27T02:36:01.946Z,26.8
2023-01-27T02:41:24.317Z,30
2023-01-27T02:46:47.426Z,28.5
2023-01-27T02:52:09.948Z,27.3
2023-01-27T02:57:31.939Z,29.4
2023-01-27T03:02:54.020Z,29.4
2023-01-27T03:08:17.230Z,27.4
2023-01-27T03:13:39.793Z,28.6
2023-01-27T03:18:47.315Z,30.1
2023-01-27T03:24:09.726Z,23.3
2023-01-27T03:34:40.921Z,30.7
2023-01-27T03:40:03.159Z,28
2023-01-27T03:45:25.805Z,26.8
2023-01-27T03:50:48.648Z,30.3
2023-01-27T03:56:11.361Z,28.3
2023-01-27T04:01:34.217Z,27.2
2023-01-27T04:06:56.550Z,29.9
2023-01-27T04:12:20.023Z,28.9
2023-01-27T04:17:43.129Z,27.4
2023-01-27T04:22:49.410Z,29.4
2023-01-27T04:28:14.843Z,29.9
2023-01-27T04:33:48.558Z,27.5
2023-01-27T04:39:00.949Z,28.9
2023-01-27T04:44:24.285Z,30.9
2023-01-27T04:49:31.697Z,27.7
2023-01-27T04:54:38.532Z,27.6
2023-01-27T04:59:46.142Z,30.4
2023-01-27T05:04:53.453Z,28.3
2023-01-27T05:10:01.954Z,27.3
2023-01-27T05:15:08.918Z,29.7
2023-01-27T05:20:16.411Z,29.6
2023-01-27T05:25:25.327Z,27.6
2023-01-27T05:30:47.396Z,28.5
2023-01-27T05:36:10.896Z,28.8
2023-01-27T05:41:17.796Z,22.5
2023-01-27T05:46:41.058Z,28.3
2023-01-27T05:52:05.391Z,30.9
2023-01-27T06:02:22.801Z,27.4
2023-01-27T06:07:30.317Z,30.4
2023-01-27T06:12:37.550Z,28.3
2023-01-27T06:17:45.816Z,27.2
2023-01-27T06:22:52.562Z,29.8
2023-01-27T06:28:28.029Z,29.4
2023-01-27T06:33:51.707Z,27.4
2023-01-27T06:39:14.381Z,29.2
2023-01-27T06:44:37.274Z,30.1
2023-01-27T06:50:00.576Z,27.6
2023-01-27T06:55:23.450Z,28.7
2023-01-27T07:00:49.072Z,30.9
2023-01-27T07:06:14.003Z,27.7
2023-01-27T07:11:48.518Z,28.4
2023-01-27T07:17:13.206Z,30.8
2023-01-27T07:22:38.133Z,27.9
2023-01-27T07:27:55.708Z,27.2
2023-01-27T07:33:19.299Z,30.2
2023-01-27T07:38:44.429Z,28.4
2023-01-27T07:44:09.071Z,27.2
2023-01-27T07:49:15.839Z,29.8
2023-01-27T07:54:22.867Z,26
2023-01-27T07:59:45.929Z,25
2023-01-27T08:05:24.932Z,29.7
2023-01-27T08:10:50.903Z,28.9
2023-01-27T08:16:13.972Z,27.3
2023-01-27T08:21:37.022Z,29.7
2023-01-27T08:27:00.002Z,29.3
2023-01-27T08:32:23.389Z,27.4
2023-01-27T08:37:47.979Z,29.4
2023-01-27T08:43:10.860Z,29.6
2023-01-27T08:48:33.931Z,27.5
2023-01-27T08:53:56.444Z,29.3
2023-01-27T08:59:19.138Z,30
2023-01-27T09:04:42.981Z,27.6
2023-01-27T09:10:15.257Z,28.8
2023-01-27T09:15:38.408Z,30.6
2023-01-27T09:21:01.006Z,27.6
2023-01-27T09:26:23.939Z,28.6
2023-01-27T09:31:56.148Z,30.9
2023-01-27T09:37:19.029Z,27.9
2023-01-27T09:42:41.991Z,27.9
2023-01-27T09:48:06.983Z,30.6
2023-01-27T09:53:38.593Z,27.9
2023-01-27T09:59:01.091Z,27.1
2023-01-27T10:04:23.977Z,30.4
2023-01-27T10:09:47.213Z,26.5
2023-01-27T10:15:10.426Z,26.1
2023-01-27T10:20:33.337Z,30.2
2023-01-27T10:25:55.989Z,28.7
2023-01-27T10:31:18.297Z,27.2
2023-01-27T10:36:41.605Z,29.8
2023-01-27T10:42:04.390Z,29
2023-01-27T10:47:27.589Z,27.3
2023-01-27T10:52:50.440Z,29.6
2023-01-27T10:58:12.488Z,29.8
2023-01-27T11:04:39.324Z,27.4
2023-01-27T11:10:01.622Z,29.5
2023-01-27T11:15:24.791Z,29.6
2023-01-27T11:20:47.417Z,27.4
2023-01-27T11:26:23.772Z,29.1
2023-01-27T11:31:47.168Z,30.1
2023-01-27T11:37:09.661Z,26.8
2023-01-27T11:42:46.916Z,25.5
2023-01-27T11:48:09.123Z,24.9
2023-01-27T11:53:31.892Z,24.4
2023-01-27T11:58:54.723Z,24.2
2023-01-27T12:04:18.737Z,26.3
2023-01-27T12:09:41.828Z,29.5
2023-01-27T12:15:07.722Z,30.5
2023-01-27T12:20:15.551Z,26.9
2023-01-27T12:25:38.354Z,25.6
2023-01-27T12:31:01.355Z,24.8
2023-01-27T12:36:24.933Z,24.4
2023-01-27T12:41:47.989Z,24.1
2023-01-27T12:47:12.685Z,26.2
2023-01-27T12:52:35.382Z,29.4
2023-01-27T12:57:57.695Z,22.6
2023-01-27T13:03:23.969Z,24.1
2023-01-27T13:08:46.648Z,28.9
2023-01-27T13:14:09.637Z,31
2023-01-27T13:24:24.896Z,26.6
2023-01-27T13:29:42.461Z,25.1
2023-01-27T13:35:06.950Z,24.8
2023-01-27T13:40:14.578Z,24.1
2023-01-27T13:45:37.122Z,23.9
2023-01-27T13:50:45.377Z,23.8
2023-01-27T13:55:55.479Z,23.7
2023-01-27T14:01:18.506Z,23.6
2023-01-27T14:06:42.165Z,23.4
2023-01-27T14:11:50.853Z,23.3
2023-01-27T14:17:11.375Z,23.1
2023-01-27T14:22:33.775Z,23
2023-01-27T14:27:57.641Z,22.9
2023-01-27T14:33:20.663Z,22.8
2023-01-27T14:38:43.237Z,22.1
2023-01-27T14:44:06.890Z,21.6
2023-01-27T14:49:51.885Z,21.2
2023-01-27T14:55:15.241Z,20.9
2023-01-27T15:00:38.101Z,20.6
2023-01-27T15:06:02.435Z,20.5
2023-01-27T15:11:25.179Z,20.7
2023-01-27T15:16:32.001Z,20.7
2023-01-27T15:21:54.876Z,20.8
2023-01-27T15:27:17.472Z,20.7
2023-01-27T15:32:41.359Z,20.6
2023-01-27T15:38:04.925Z,20.6
2023-01-27T15:43:26.839Z,20.6
2023-01-27T15:48:49.598Z,20.9
2023-01-27T15:54:14.564Z,33.1
2023-01-27T15:59:38.938Z,35.4
2023-01-27T16:05:05.325Z,35.9
2023-01-27T16:10:28.223Z,36.2
2023-01-27T16:15:51.462Z,36.1
2023-01-27T16:20:58.775Z,35.8
2023-01-27T16:26:22.282Z,38.1
2023-01-27T16:31:44.948Z,36.3
2023-01-27T16:37:08.177Z,36.4
2023-01-27T16:42:30.711Z,36.4
2023-01-27T16:48:06.741Z,36.4
2023-01-27T16:53:43.044Z,37.4
2023-01-27T16:59:19.149Z,41.1
2023-01-27T17:04:52.865Z,42.3
2023-01-27T17:10:24.362Z,39.3
2023-01-27T17:16:10.296Z,37.9
2023-01-27T17:21:43.393Z,39.4
2023-01-27T17:27:07.617Z,37.1
2023-01-27T17:32:35.294Z,39.2
2023-01-27T17:38:10.947Z,36.9
2023-01-27T17:43:38.885Z,37
2023-01-27T17:49:07.966Z,36.6
2023-01-27T17:54:38.069Z,36.8
2023-01-27T17:59:53.278Z,36.8
2023-01-27T18:05:05.149Z,37.1
2023-01-27T18:10:31.055Z,37.9
2023-01-27T18:15:59.538Z,36.8
2023-01-27T18:21:28.325Z,38.6
2023-01-27T18:27:00.245Z,37
2023-01-27T18:32:11.603Z,40
2023-01-27T18:37:27.719Z,40.8
2023-01-27T18:43:01.787Z,38.4
2023-01-27T18:48:43.142Z,38.9
2023-01-27T18:54:25.221Z,38.4
2023-01-27T19:00:03.588Z,37.6
2023-01-27T19:05:41.954Z,37.5
2023-01-27T19:11:15.325Z,38.8
2023-01-27T19:16:42.755Z,38.3
2023-01-27T19:22:10.661Z,37.6
2023-01-27T19:27:12.340Z,39.9
2023-01-27T19:32:26.529Z,37.4
2023-01-27T19:37:55.359Z,39
2023-01-27T19:43:26.248Z,37.4
2023-01-27T19:48:54.608Z,38.2
2023-01-27T19:54:22.051Z,37.3
2023-01-27T19:59:48.710Z,37.3
2023-01-27T20:05:19.374Z,36.6
2023-01-27T20:10:48.822Z,36.9
2023-01-27T20:16:15.695Z,36.8
2023-01-27T20:21:44.311Z,36.8
2023-01-27T20:27:11.914Z,36.4
2023-01-27T20:32:36.073Z,35.9
2023-01-27T20:37:46.414Z,35.6
2023-01-27T20:42:55.357Z,35.3
2023-01-27T20:48:31.571Z,34.8
2023-01-27T20:53:54.627Z,33.9
2023-01-27T20:59:17.528Z,32.9
2023-01-27T21:04:40.255Z,32.2
2023-01-27T21:10:03.844Z,31.6
2023-01-27T21:15:26.728Z,28.4
2023-01-27T21:20:34.491Z,26.8
2023-01-27T21:25:57.811Z,26
2023-01-27T21:31:08.161Z,25.5
2023-01-27T21:36:15.771Z,26.1
2023-01-27T21:41:38.588Z,30.1
2023-01-27T21:47:01.658Z,27.6
2023-01-27T21:52:24.248Z,26.9
2023-01-27T21:57:47.436Z,25.7
2023-01-27T22:03:11.906Z,25.2
2023-01-27T22:08:34.934Z,29.6
2023-01-27T22:13:58.832Z,27.9
2023-01-27T22:19:05.686Z,26.9
2023-01-27T22:24:11.846Z,25.7
2023-01-27T22:29:33.788Z,25.1
2023-01-27T22:34:56.480Z,29.4
2023-01-27T22:40:19.914Z,28.4
2023-01-27T22:45:42.978Z,27.1
2023-01-27T22:51:05.563Z,25.9
2023-01-27T22:56:27.463Z,25.4
2023-01-27T23:01:50.102Z,29.7
2023-01-27T23:07:13.810Z,28.7
2023-01-27T23:12:35.513Z,27.3
2023-01-27T23:17:58.891Z,28.8
2023-01-27T23:23:21.751Z,30.2
2023-01-27T23:28:44.064Z,27.6
2023-01-27T23:34:13.976Z,27.6
2023-01-27T23:39:54.851Z,30.5
2023-01-27T23:45:16.902Z,27.8
2023-01-27T23:50:39.545Z,26.7
2023-01-27T23:56:02.680Z,30.1
